sensor_id;sensor_type;location;lat;lon;timestamp;pressure;altitude;pressure_sealevel;temperature;humidity
13732;BME280;6937;56.096;12.664;2022-08-19T00:00:00;101202.06;;;20.87;100.00
13732;BME280;6937;56.096;12.664;2022-08-19T00:02:26;101177.56;;;20.54;100.00
13732;BME280;6937;56.096;12.664;2022-08-19T00:04:51;101173.72;;;20.31;100.00
13732;BME280;6937;56.096;12.664;2022-08-19T00:07:20;101177.31;;;20.32;100.00
13732;BME280;6937;56.096;12.664;2022-08-19T00:09:45;101166.53;;;20.22;100.00
13732;BME280;6937;56.096;12.664;2022-08-19T00:12:10;101187.47;;;20.30;100.00
13732;BME280;6937;56.096;12.664;2022-08-19T00:14:37;101254.16;;;20.32;100.00
13732;BME280;6937;56.096;12.664;2022-08-19T00:17:04;101393.72;;;20.39;100.00
13732;BME280;6937;56.096;12.664;2022-08-19T00:19:30;101292.06;;;20.42;100.00
13732;BME280;6937;56.096;12.664;2022-08-19T00:21:55;101257.28;;;20.45;100.00
13732;BME280;6937;56.096;12.664;2022-08-19T00:24:21;101208.69;;;20.34;100.00
13732;BME280;6937;56.096;12.664;2022-08-19T00:26:47;101211.78;;;20.47;100.00
13732;BME280;6937;56.096;12.664;2022-08-19T00:29:17;101193.66;;;20.56;100.00
13732;BME280;6937;56.096;12.664;2022-08-19T00:31:43;101182.81;;;20.56;100.00
13732;BME280;6937;56.096;12.664;2022-08-19T00:34:10;101164.47;;;20.50;100.00
13732;BME280;6937;56.096;12.664;2022-08-19T00:36:36;101161.91;;;20.48;100.00
13732;BME280;6937;56.096;12.664;2022-08-19T00:39:03;101163.75;;;20.48;100.00
13732;BME280;6937;56.096;12.664;2022-08-19T00:41:28;101165.28;;;20.42;100.00
13732;BME280;6937;56.096;12.664;2022-08-19T00:44:06;101161.34;;;20.37;100.00
13732;BME280;6937;56.096;12.664;2022-08-19T00:46:34;101169.16;;;20.32;100.00
13732;BME280;6937;56.096;12.664;2022-08-19T00:49:06;101167.25;;;20.32;100.00
13732;BME280;6937;56.096;12.664;2022-08-19T00:51:34;101188.69;;;20.35;100.00
13732;BME280;6937;56.096;12.664;2022-08-19T00:54:00;101193.59;;;20.40;100.00
13732;BME280;6937;56.096;12.664;2022-08-19T00:56:26;101179.31;;;20.30;100.00
13732;BME280;6937;56.096;12.664;2022-08-19T00:58:53;101189.31;;;20.29;100.00
13732;BME280;6937;56.096;12.664;2022-08-19T01:01:19;101178.03;;;20.16;100.00
13732;BME280;6937;56.096;12.664;2022-08-19T01:03:45;101183.63;;;20.14;100.00
13732;BME280;6937;56.096;12.664;2022-08-19T01:06:10;101190.63;;;20.17;100.00
13732;BME280;6937;56.096;12.664;2022-08-19T01:08:35;101191.09;;;20.12;100.00
13732;BME280;6937;56.096;12.664;2022-08-19T01:11:01;101179.00;;;20.07;100.00
13732;BME280;6937;56.096;12.664;2022-08-19T01:13:30;101186.66;;;20.11;100.00
13732;BME280;6937;56.096;12.664;2022-08-19T01:16:06;101187.72;;;20.18;100.00
13732;BME280;6937;56.096;12.664;2022-08-19T01:18:36;101164.59;;;20.06;100.00
13732;BME280;6937;56.096;12.664;2022-08-19T01:21:09;101171.38;;;20.10;100.00
13732;BME280;6937;56.096;12.664;2022-08-19T01:23:36;101170.72;;;20.08;100.00
13732;BME280;6937;56.096;12.664;2022-08-19T01:26:16;101188.16;;;20.06;100.00
13732;BME280;6937;56.096;12.664;2022-08-19T01:28:44;101203.44;;;20.07;100.00
13732;BME280;6937;56.096;12.664;2022-08-19T01:31:13;101203.44;;;20.07;100.00
13732;BME280;6937;56.096;12.664;2022-08-19T01:33:39;101213.59;;;20.05;100.00
13732;BME280;6937;56.096;12.664;2022-08-19T01:36:11;101204.63;;;20.04;100.00
13732;BME280;6937;56.096;12.664;2022-08-19T01:38:40;101198.34;;;20.04;100.00
13732;BME280;6937;56.096;12.664;2022-08-19T01:41:06;101217.53;;;20.10;100.00
13732;BME280;6937;56.096;12.664;2022-08-19T01:43:33;101217.38;;;20.12;100.00
13732;BME280;6937;56.096;12.664;2022-08-19T01:45:59;101243.13;;;20.08;100.00
13732;BME280;6937;56.096;12.664;2022-08-19T01:48:24;101245.31;;;20.04;100.00
13732;BME280;6937;56.096;12.664;2022-08-19T01:50:50;101247.31;;;20.02;100.00
13732;BME280;6937;56.096;12.664;2022-08-19T01:53:15;101229.63;;;19.90;100.00
13732;BME280;6937;56.096;12.664;2022-08-19T01:55:42;101248.44;;;19.92;100.00
13732;BME280;6937;56.096;12.664;2022-08-19T01:58:18;101262.72;;;19.94;100.00
13732;BME280;6937;56.096;12.664;2022-08-19T02:00:45;101280.88;;;19.93;100.00
13732;BME280;6937;56.096;12.664;2022-08-19T02:03:11;101286.13;;;19.95;100.00
13732;BME280;6937;56.096;12.664;2022-08-19T02:05:37;101311.78;;;20.00;100.00
13732;BME280;6937;56.096;12.664;2022-08-19T02:08:03;101297.13;;;19.93;100.00
13732;BME280;6937;56.096;12.664;2022-08-19T02:10:28;101326.78;;;20.12;100.00
13732;BME280;6937;56.096;12.664;2022-08-19T02:12:54;101320.66;;;20.10;100.00
13732;BME280;6937;56.096;12.664;2022-08-19T02:15:20;101329.66;;;20.11;100.00
13732;BME280;6937;56.096;12.664;2022-08-19T02:17:46;101327.06;;;20.01;100.00
13732;BME280;6937;56.096;12.664;2022-08-19T02:20:12;101335.66;;;19.97;100.00
13732;BME280;6937;56.096;12.664;2022-08-19T02:22:38;101351.81;;;19.98;100.00
13732;BME280;6937;56.096;12.664;2022-08-19T02:25:07;101367.38;;;19.96;100.00
13732;BME280;6937;56.096;12.664;2022-08-19T02:27:32;101378.38;;;19.95;100.00
13732;BME280;6937;56.096;12.664;2022-08-19T02:29:59;101397.06;;;19.98;100.00
13732;BME280;6937;56.096;12.664;2022-08-19T02:32:24;101396.69;;;19.93;100.00
13732;BME280;6937;56.096;12.664;2022-08-19T02:34:50;101416.66;;;19.92;100.00
13732;BME280;6937;56.096;12.664;2022-08-19T02:37:15;101412.81;;;19.94;100.00
13732;BME280;6937;56.096;12.664;2022-08-19T02:39:59;101401.41;;;19.91;100.00
13732;BME280;6937;56.096;12.664;2022-08-19T02:42:25;101392.03;;;19.85;100.00
13732;BME280;6937;56.096;12.664;2022-08-19T02:44:51;101386.59;;;19.85;100.00
13732;BME280;6937;56.096;12.664;2022-08-19T02:47:17;101395.91;;;19.83;100.00
13732;BME280;6937;56.096;12.664;2022-08-19T02:49:44;101403.03;;;19.84;100.00
13732;BME280;6937;56.096;12.664;2022-08-19T02:52:09;101388.22;;;19.78;100.00
13732;BME280;6937;56.096;12.664;2022-08-19T02:54:36;101387.25;;;19.79;100.00
13732;BME280;6937;56.096;12.664;2022-08-19T02:57:02;101384.22;;;19.82;100.00
13732;BME280;6937;56.096;12.664;2022-08-19T02:59:30;101371.63;;;19.81;100.00
13732;BME280;6937;56.096;12.664;2022-08-19T03:01:56;101362.81;;;19.79;100.00
13732;BME280;6937;56.096;12.664;2022-08-19T03:04:22;101344.06;;;19.68;100.00
13732;BME280;6937;56.096;12.664;2022-08-19T03:06:48;101332.28;;;19.59;100.00
13732;BME280;6937;56.096;12.664;2022-08-19T03:09:15;101327.63;;;19.52;100.00
13732;BME280;6937;56.096;12.664;2022-08-19T03:11:40;101338.03;;;19.56;100.00
13732;BME280;6937;56.096;12.664;2022-08-19T03:14:08;101341.09;;;19.61;100.00
13732;BME280;6937;56.096;12.664;2022-08-19T03:16:40;101344.63;;;19.71;100.00
13732;BME280;6937;56.096;12.664;2022-08-19T03:19:06;101354.06;;;19.67;100.00
13732;BME280;6937;56.096;12.664;2022-08-19T03:21:32;101354.22;;;19.66;100.00
13732;BME280;6937;56.096;12.664;2022-08-19T03:24:02;101370.34;;;19.67;100.00
13732;BME280;6937;56.096;12.664;2022-08-19T03:26:29;101383.34;;;19.64;100.00
13732;BME280;6937;56.096;12.664;2022-08-19T03:28:56;101405.34;;;19.61;100.00
13732;BME280;6937;56.096;12.664;2022-08-19T03:31:23;101403.56;;;19.52;100.00
13732;BME280;6937;56.096;12.664;2022-08-19T03:33:50;101403.69;;;19.50;100.00
13732;BME280;6937;56.096;12.664;2022-08-19T03:36:22;101408.28;;;19.50;100.00
13732;BME280;6937;56.096;12.664;2022-08-19T03:38:54;101412.25;;;19.55;100.00
13732;BME280;6937;56.096;12.664;2022-08-19T03:41:23;101413.09;;;19.56;100.00
13732;BME280;6937;56.096;12.664;2022-08-19T03:43:49;101402.84;;;19.50;100.00
13732;BME280;6937;56.096;12.664;2022-08-19T03:46:21;101404.97;;;19.56;100.00
13732;BME280;6937;56.096;12.664;2022-08-19T03:48:48;101389.25;;;19.59;100.00
13732;BME280;6937;56.096;12.664;2022-08-19T03:51:18;101367.47;;;19.51;100.00
13732;BME280;6937;56.096;12.664;2022-08-19T03:53:46;101349.09;;;19.45;100.00
13732;BME280;6937;56.096;12.664;2022-08-19T03:56:11;101320.31;;;19.35;100.00
13732;BME280;6937;56.096;12.664;2022-08-19T03:58:38;101297.06;;;19.32;100.00
13732;BME280;6937;56.096;12.664;2022-08-19T04:01:09;101256.50;;;19.22;100.00
13732;BME280;6937;56.096;12.664;2022-08-19T04:03:35;101245.66;;;19.22;100.00
13732;BME280;6937;56.096;12.664;2022-08-19T04:06:26;101221.03;;;19.16;100.00
13732;BME280;6937;56.096;12.664;2022-08-19T04:08:53;101206.09;;;19.12;100.00
13732;BME280;6937;56.096;12.664;2022-08-19T04:11:22;101207.00;;;19.20;100.00
13732;BME280;6937;56.096;12.664;2022-08-19T04:13:49;101203.84;;;19.25;100.00
13732;BME280;6937;56.096;12.664;2022-08-19T04:16:17;101204.84;;;19.24;100.00
13732;BME280;6937;56.096;12.664;2022-08-19T04:18:43;101238.22;;;19.42;100.00
13732;BME280;6937;56.096;12.664;2022-08-19T04:21:18;101268.38;;;19.57;100.00
13732;BME280;6937;56.096;12.664;2022-08-19T04:23:44;101276.72;;;19.63;100.00
13732;BME280;6937;56.096;12.664;2022-08-19T04:26:20;101277.81;;;19.70;100.00
13732;BME280;6937;56.096;12.664;2022-08-19T04:28:46;101272.00;;;19.65;100.00
13732;BME280;6937;56.096;12.664;2022-08-19T04:31:19;101267.75;;;19.63;100.00
13732;BME280;6937;56.096;12.664;2022-08-19T04:33:45;101228.78;;;19.46;100.00
13732;BME280;6937;56.096;12.664;2022-08-19T04:36:23;101210.97;;;19.26;100.00
13732;BME280;6937;56.096;12.664;2022-08-19T04:38:52;101207.34;;;19.17;100.00
13732;BME280;6937;56.096;12.664;2022-08-19T04:41:18;101246.13;;;19.18;100.00
13732;BME280;6937;56.096;12.664;2022-08-19T04:44:02;101285.47;;;19.22;100.00
13732;BME280;6937;56.096;12.664;2022-08-19T04:46:29;101326.75;;;19.34;100.00
13732;BME280;6937;56.096;12.664;2022-08-19T04:48:58;101373.78;;;19.42;100.00
13732;BME280;6937;56.096;12.664;2022-08-19T04:51:23;101395.47;;;19.42;100.00
13732;BME280;6937;56.096;12.664;2022-08-19T04:53:49;101413.47;;;19.43;100.00
13732;BME280;6937;56.096;12.664;2022-08-19T04:56:17;101431.84;;;19.49;100.00
13732;BME280;6937;56.096;12.664;2022-08-19T04:58:43;101436.41;;;19.49;100.00
13732;BME280;6937;56.096;12.664;2022-08-19T05:01:17;101457.84;;;19.42;100.00
13732;BME280;6937;56.096;12.664;2022-08-19T05:03:43;101465.56;;;19.37;100.00
13732;BME280;6937;56.096;12.664;2022-08-19T05:06:12;101456.91;;;19.24;100.00
13732;BME280;6937;56.096;12.664;2022-08-19T05:08:40;101486.69;;;19.34;100.00
13732;BME280;6937;56.096;12.664;2022-08-19T05:11:20;101472.06;;;19.17;100.00
13732;BME280;6937;56.096;12.664;2022-08-19T05:13:47;101510.13;;;19.25;100.00
13732;BME280;6937;56.096;12.664;2022-08-19T05:16:15;101538.50;;;19.30;100.00
13732;BME280;6937;56.096;12.664;2022-08-19T05:18:42;101547.75;;;19.28;100.00
13732;BME280;6937;56.096;12.664;2022-08-19T05:21:27;101591.81;;;19.49;100.00
13732;BME280;6937;56.096;12.664;2022-08-19T05:24:12;101617.72;;;19.61;100.00
13732;BME280;6937;56.096;12.664;2022-08-19T05:26:41;101643.84;;;19.72;100.00
13732;BME280;6937;56.096;12.664;2022-08-19T05:29:07;101662.06;;;19.79;100.00
13732;BME280;6937;56.096;12.664;2022-08-19T05:31:34;101678.44;;;19.97;100.00
13732;BME280;6937;56.096;12.664;2022-08-19T05:34:00;101727.53;;;20.04;100.00
13732;BME280;6937;56.096;12.664;2022-08-19T05:36:28;101750.38;;;20.11;100.00
13732;BME280;6937;56.096;12.664;2022-08-19T05:38:54;101791.19;;;20.19;100.00
13732;BME280;6937;56.096;12.664;2022-08-19T05:41:20;101818.59;;;20.25;100.00
13732;BME280;6937;56.096;12.664;2022-08-19T05:43:55;101859.06;;;20.38;100.00
13732;BME280;6937;56.096;12.664;2022-08-19T05:46:21;101905.72;;;20.61;100.00
13732;BME280;6937;56.096;12.664;2022-08-19T05:48:47;101932.72;;;20.72;100.00
13732;BME280;6937;56.096;12.664;2022-08-19T05:51:14;101938.28;;;20.70;100.00
13732;BME280;6937;56.096;12.664;2022-08-19T05:53:41;101966.88;;;20.74;100.00
13732;BME280;6937;56.096;12.664;2022-08-19T05:56:08;101968.00;;;20.82;100.00
13732;BME280;6937;56.096;12.664;2022-08-19T05:58:36;101942.72;;;20.71;100.00
13732;BME280;6937;56.096;12.664;2022-08-19T06:01:10;101961.38;;;20.94;100.00
13732;BME280;6937;56.096;12.664;2022-08-19T06:03:36;101962.38;;;21.02;100.00
13732;BME280;6937;56.096;12.664;2022-08-19T06:06:03;101957.03;;;21.10;100.00
13732;BME280;6937;56.096;12.664;2022-08-19T06:08:30;101961.59;;;21.19;100.00
13732;BME280;6937;56.096;12.664;2022-08-19T06:10:56;101944.06;;;21.32;100.00
13732;BME280;6937;56.096;12.664;2022-08-19T06:13:21;101934.06;;;21.50;100.00
13732;BME280;6937;56.096;12.664;2022-08-19T06:15:48;101870.50;;;21.51;100.00
13732;BME280;6937;56.096;12.664;2022-08-19T06:18:13;101797.56;;;21.54;100.00
13732;BME280;6937;56.096;12.664;2022-08-19T06:20:40;101729.72;;;21.53;100.00
13732;BME280;6937;56.096;12.664;2022-08-19T06:23:05;101651.00;;;21.51;100.00
13732;BME280;6937;56.096;12.664;2022-08-19T06:25:31;101591.78;;;21.45;100.00
13732;BME280;6937;56.096;12.664;2022-08-19T06:27:56;101567.00;;;21.56;100.00
13732;BME280;6937;56.096;12.664;2022-08-19T06:30:22;101583.78;;;21.78;100.00
13732;BME280;6937;56.096;12.664;2022-08-19T06:32:47;101548.25;;;21.87;100.00
13732;BME280;6937;56.096;12.664;2022-08-19T06:35:13;101469.31;;;21.87;100.00
13732;BME280;6937;56.096;12.664;2022-08-19T06:37:40;101383.25;;;21.78;100.00
13732;BME280;6937;56.096;12.664;2022-08-19T06:40:06;101300.75;;;21.61;100.00
13732;BME280;6937;56.096;12.664;2022-08-19T06:42:34;101339.91;;;21.93;100.00
13732;BME280;6937;56.096;12.664;2022-08-19T06:45:00;101331.06;;;22.23;100.00
13732;BME280;6937;56.096;12.664;2022-08-19T06:47:29;101266.13;;;22.35;100.00
13732;BME280;6937;56.096;12.664;2022-08-19T06:49:56;101153.97;;;22.31;100.00
13732;BME280;6937;56.096;12.664;2022-08-19T06:52:30;101073.84;;;22.26;100.00
13732;BME280;6937;56.096;12.664;2022-08-19T06:54:57;101014.97;;;22.25;100.00
13732;BME280;6937;56.096;12.664;2022-08-19T06:57:24;100987.13;;;22.37;100.00
13732;BME280;6937;56.096;12.664;2022-08-19T06:59:49;100948.63;;;22.40;100.00
13732;BME280;6937;56.096;12.664;2022-08-19T07:02:15;100932.63;;;22.60;100.00
13732;BME280;6937;56.096;12.664;2022-08-19T07:04:40;100921.75;;;22.60;100.00
13732;BME280;6937;56.096;12.664;2022-08-19T07:07:11;100905.81;;;22.72;100.00
13732;BME280;6937;56.096;12.664;2022-08-19T07:09:40;100907.22;;;22.82;100.00
13732;BME280;6937;56.096;12.664;2022-08-19T07:12:08;100891.81;;;22.89;100.00
13732;BME280;6937;56.096;12.664;2022-08-19T07:14:36;100892.47;;;22.91;100.00
13732;BME280;6937;56.096;12.664;2022-08-19T07:17:07;100893.13;;;23.08;100.00
13732;BME280;6937;56.096;12.664;2022-08-19T07:19:33;100924.72;;;23.46;100.00
13732;BME280;6937;56.096;12.664;2022-08-19T07:22:01;100899.56;;;23.66;100.00
13732;BME280;6937;56.096;12.664;2022-08-19T07:24:27;100853.28;;;23.57;100.00
13732;BME280;6937;56.096;12.664;2022-08-19T07:26:55;100830.44;;;23.44;100.00
13732;BME280;6937;56.096;12.664;2022-08-19T07:29:22;100812.19;;;23.44;100.00
13732;BME280;6937;56.096;12.664;2022-08-19T07:31:49;100784.56;;;23.33;100.00
13732;BME280;6937;56.096;12.664;2022-08-19T07:34:15;100779.72;;;23.13;100.00
13732;BME280;6937;56.096;12.664;2022-08-19T07:36:42;100701.97;;;22.67;100.00
13732;BME280;6937;56.096;12.664;2022-08-19T07:39:18;100751.78;;;22.90;100.00
13732;BME280;6937;56.096;12.664;2022-08-19T07:41:45;100790.09;;;23.03;100.00
13732;BME280;6937;56.096;12.664;2022-08-19T07:44:11;100819.50;;;23.08;100.00
13732;BME280;6937;56.096;12.664;2022-08-19T07:46:40;100823.09;;;23.08;100.00
13732;BME280;6937;56.096;12.664;2022-08-19T07:49:07;100839.69;;;23.13;100.00
13732;BME280;6937;56.096;12.664;2022-08-19T07:51:38;100865.38;;;23.19;100.00
13732;BME280;6937;56.096;12.664;2022-08-19T07:54:04;100883.06;;;23.23;100.00
13732;BME280;6937;56.096;12.664;2022-08-19T07:56:29;100887.66;;;23.23;100.00
13732;BME280;6937;56.096;12.664;2022-08-19T07:58:54;100915.94;;;23.36;100.00
13732;BME280;6937;56.096;12.664;2022-08-19T08:01:23;100942.59;;;23.49;100.00
13732;BME280;6937;56.096;12.664;2022-08-19T08:03:50;100944.38;;;23.56;100.00
13732;BME280;6937;56.096;12.664;2022-08-19T08:06:34;100915.38;;;23.55;100.00
13732;BME280;6937;56.096;12.664;2022-08-19T08:09:23;100886.22;;;23.56;100.00
13732;BME280;6937;56.096;12.664;2022-08-19T08:11:56;100877.06;;;23.64;100.00
13732;BME280;6937;56.096;12.664;2022-08-19T08:14:47;100855.31;;;23.70;100.00
13732;BME280;6937;56.096;12.664;2022-08-19T08:17:15;100829.81;;;23.63;100.00
13732;BME280;6937;56.096;12.664;2022-08-19T08:19:42;100819.19;;;23.68;100.00
13732;BME280;6937;56.096;12.664;2022-08-19T08:22:09;100817.75;;;23.72;100.00
13732;BME280;6937;56.096;12.664;2022-08-19T08:24:55;100834.00;;;23.80;100.00
13732;BME280;6937;56.096;12.664;2022-08-19T08:27:23;100826.06;;;23.85;100.00
13732;BME280;6937;56.096;12.664;2022-08-19T08:29:49;100798.31;;;23.82;100.00
13732;BME280;6937;56.096;12.664;2022-08-19T08:32:14;100803.59;;;23.83;100.00
13732;BME280;6937;56.096;12.664;2022-08-19T08:34:40;100801.56;;;23.92;100.00
13732;BME280;6937;56.096;12.664;2022-08-19T08:37:05;100806.22;;;23.98;100.00
13732;BME280;6937;56.096;12.664;2022-08-19T08:39:31;100802.69;;;24.04;100.00
13732;BME280;6937;56.096;12.664;2022-08-19T08:42:05;100793.75;;;24.10;100.00
13732;BME280;6937;56.096;12.664;2022-08-19T08:44:47;100800.97;;;24.18;100.00
13732;BME280;6937;56.096;12.664;2022-08-19T08:47:18;100800.63;;;24.27;100.00
13732;BME280;6937;56.096;12.664;2022-08-19T08:49:55;100802.59;;;24.40;100.00
13732;BME280;6937;56.096;12.664;2022-08-19T08:52:31;100763.84;;;24.30;100.00
13732;BME280;6937;56.096;12.664;2022-08-19T08:55:04;100783.47;;;24.40;100.00
13732;BME280;6937;56.096;12.664;2022-08-19T09:00:25;100906.34;;;24.54;100.00
13732;BME280;6937;56.096;12.664;2022-08-19T09:02:52;100945.44;;;24.55;100.00
13732;BME280;6937;56.096;12.664;2022-08-19T09:05:19;100949.66;;;24.58;100.00
13732;BME280;6937;56.096;12.664;2022-08-19T09:08:13;100963.66;;;24.69;100.00
13732;BME280;6937;56.096;12.664;2022-08-19T09:11:04;100952.56;;;24.77;100.00
13732;BME280;6937;56.096;12.664;2022-08-19T09:16:10;100978.88;;;25.06;100.00
13732;BME280;6937;56.096;12.664;2022-08-19T09:21:05;100978.56;;;25.16;100.00
13732;BME280;6937;56.096;12.664;2022-08-19T09:23:30;100982.47;;;25.07;100.00
13732;BME280;6937;56.096;12.664;2022-08-19T09:25:55;101024.31;;;25.00;100.00
13732;BME280;6937;56.096;12.664;2022-08-19T09:28:21;101090.84;;;24.86;100.00
13732;BME280;6937;56.096;12.664;2022-08-19T09:30:46;101142.88;;;25.14;100.00
13732;BME280;6937;56.096;12.664;2022-08-19T09:33:11;101146.34;;;25.23;100.00
13732;BME280;6937;56.096;12.664;2022-08-19T09:35:37;101140.59;;;25.18;100.00
13732;BME280;6937;56.096;12.664;2022-08-19T09:38:02;101138.38;;;25.07;100.00
13732;BME280;6937;56.096;12.664;2022-08-19T09:40:28;101134.69;;;24.93;100.00
13732;BME280;6937;56.096;12.664;2022-08-19T09:42:53;101129.66;;;24.61;100.00
13732;BME280;6937;56.096;12.664;2022-08-19T09:45:21;101131.81;;;24.44;100.00
13732;BME280;6937;56.096;12.664;2022-08-19T09:47:47;101141.81;;;24.22;100.00
13732;BME280;6937;56.096;12.664;2022-08-19T09:50:13;101151.63;;;24.17;100.00
13732;BME280;6937;56.096;12.664;2022-08-19T09:52:39;101106.88;;;23.88;100.00
13732;BME280;6937;56.096;12.664;2022-08-19T09:55:09;101187.00;;;24.54;100.00
13732;BME280;6937;56.096;12.664;2022-08-19T09:57:35;101189.53;;;24.70;100.00
13732;BME280;6937;56.096;12.664;2022-08-19T10:00:04;101176.88;;;24.69;100.00
13732;BME280;6937;56.096;12.664;2022-08-19T10:02:30;101180.00;;;24.66;100.00
13732;BME280;6937;56.096;12.664;2022-08-19T10:04:55;101165.41;;;24.59;100.00
13732;BME280;6937;56.096;12.664;2022-08-19T10:07:39;101170.41;;;24.56;100.00
13732;BME280;6937;56.096;12.664;2022-08-19T10:10:06;101165.13;;;24.54;100.00
13732;BME280;6937;56.096;12.664;2022-08-19T10:12:32;101163.75;;;24.43;100.00
13732;BME280;6937;56.096;12.664;2022-08-19T10:14:59;101158.91;;;24.45;100.00
13732;BME280;6937;56.096;12.664;2022-08-19T10:17:24;101161.75;;;24.37;100.00
13732;BME280;6937;56.096;12.664;2022-08-19T10:19:50;101165.44;;;24.44;100.00
13732;BME280;6937;56.096;12.664;2022-08-19T10:22:17;101168.19;;;24.44;100.00
13732;BME280;6937;56.096;12.664;2022-08-19T10:24:43;101179.13;;;24.44;100.00
13732;BME280;6937;56.096;12.664;2022-08-19T10:27:08;101180.53;;;24.40;100.00
13732;BME280;6937;56.096;12.664;2022-08-19T10:29:35;101169.38;;;24.42;100.00
13732;BME280;6937;56.096;12.664;2022-08-19T10:32:02;101174.28;;;24.46;100.00
13732;BME280;6937;56.096;12.664;2022-08-19T10:34:30;101164.88;;;24.34;100.00
13732;BME280;6937;56.096;12.664;2022-08-19T10:36:56;101161.28;;;24.34;100.00
13732;BME280;6937;56.096;12.664;2022-08-19T10:39:22;101173.53;;;24.38;100.00
13732;BME280;6937;56.096;12.664;2022-08-19T10:41:47;101163.56;;;24.30;100.00
13732;BME280;6937;56.096;12.664;2022-08-19T10:44:14;101151.44;;;24.18;100.00
13732;BME280;6937;56.096;12.664;2022-08-19T10:46:42;101169.13;;;24.22;100.00
13732;BME280;6937;56.096;12.664;2022-08-19T10:49:12;101174.25;;;24.25;100.00
13732;BME280;6937;56.096;12.664;2022-08-19T10:51:41;101168.78;;;24.25;100.00
13732;BME280;6937;56.096;12.664;2022-08-19T10:54:25;101180.53;;;24.26;100.00
13732;BME280;6937;56.096;12.664;2022-08-19T10:57:10;101176.28;;;24.23;100.00
13732;BME280;6937;56.096;12.664;2022-08-19T10:59:35;101155.00;;;24.19;100.00
13732;BME280;6937;56.096;12.664;2022-08-19T11:02:03;101160.19;;;24.28;100.00
13732;BME280;6937;56.096;12.664;2022-08-19T11:04:28;101155.13;;;24.25;100.00
13732;BME280;6937;56.096;12.664;2022-08-19T11:06:55;101148.22;;;24.29;100.00
13732;BME280;6937;56.096;12.664;2022-08-19T11:09:23;101137.59;;;24.20;100.00
13732;BME280;6937;56.096;12.664;2022-08-19T11:11:54;101161.03;;;24.29;100.00
13732;BME280;6937;56.096;12.664;2022-08-19T11:14:22;101165.44;;;24.30;100.00
13732;BME280;6937;56.096;12.664;2022-08-19T11:16:49;101158.78;;;24.32;100.00
13732;BME280;6937;56.096;12.664;2022-08-19T11:19:16;101155.66;;;24.35;100.00
13732;BME280;6937;56.096;12.664;2022-08-19T11:21:46;101147.38;;;24.29;100.00
13732;BME280;6937;56.096;12.664;2022-08-19T11:24:14;101130.41;;;24.19;100.00
13732;BME280;6937;56.096;12.664;2022-08-19T11:26:41;101126.09;;;24.24;100.00
13732;BME280;6937;56.096;12.664;2022-08-19T11:29:09;101142.88;;;24.21;100.00
13732;BME280;6937;56.096;12.664;2022-08-19T11:31:42;101136.63;;;24.27;100.00
13732;BME280;6937;56.096;12.664;2022-08-19T11:34:10;101145.81;;;24.41;100.00
13732;BME280;6937;56.096;12.664;2022-08-19T11:36:38;101171.53;;;24.61;100.00
13732;BME280;6937;56.096;12.664;2022-08-19T11:39:06;101150.56;;;24.68;100.00
13732;BME280;6937;56.096;12.664;2022-08-19T11:41:32;101149.09;;;24.66;100.00
13732;BME280;6937;56.096;12.664;2022-08-19T11:43:57;101142.59;;;24.52;100.00
13732;BME280;6937;56.096;12.664;2022-08-19T11:46:24;101138.09;;;24.59;100.00
13732;BME280;6937;56.096;12.664;2022-08-19T11:48:51;101155.06;;;24.76;100.00
13732;BME280;6937;56.096;12.664;2022-08-19T11:51:20;101145.06;;;24.83;100.00
13732;BME280;6937;56.096;12.664;2022-08-19T11:53:47;101171.34;;;24.98;100.00
13732;BME280;6937;56.096;12.664;2022-08-19T11:56:12;101165.94;;;25.05;100.00
13732;BME280;6937;56.096;12.664;2022-08-19T11:58:38;101162.88;;;25.15;100.00
13732;BME280;6937;56.096;12.664;2022-08-19T12:01:15;101162.75;;;25.23;100.00
13732;BME280;6937;56.096;12.664;2022-08-19T12:03:42;101166.56;;;25.28;100.00
13732;BME280;6937;56.096;12.664;2022-08-19T12:06:11;101150.38;;;25.27;100.00
13732;BME280;6937;56.096;12.664;2022-08-19T12:08:37;101158.38;;;25.28;100.00
13732;BME280;6937;56.096;12.664;2022-08-19T12:11:03;101155.69;;;25.35;100.00
13732;BME280;6937;56.096;12.664;2022-08-19T12:13:30;101152.63;;;25.44;100.00
13732;BME280;6937;56.096;12.664;2022-08-19T12:15:57;101152.84;;;25.49;100.00
13732;BME280;6937;56.096;12.664;2022-08-19T12:18:23;101151.50;;;25.60;100.00
13732;BME280;6937;56.096;12.664;2022-08-19T12:20:53;101156.00;;;25.68;100.00
13732;BME280;6937;56.096;12.664;2022-08-19T12:23:20;101148.34;;;25.57;100.00
13732;BME280;6937;56.096;12.664;2022-08-19T12:25:47;101156.84;;;25.47;100.00
13732;BME280;6937;56.096;12.664;2022-08-19T12:28:18;101145.81;;;25.34;100.00
13732;BME280;6937;56.096;12.664;2022-08-19T12:30:44;101156.59;;;25.21;100.00
13732;BME280;6937;56.096;12.664;2022-08-19T12:33:10;101158.38;;;25.07;100.00
13732;BME280;6937;56.096;12.664;2022-08-19T12:35:35;101083.53;;;24.51;100.00
13732;BME280;6937;56.096;12.664;2022-08-19T12:38:04;101144.06;;;24.69;100.00
13732;BME280;6937;56.096;12.664;2022-08-19T12:40:30;101146.78;;;24.48;100.00
13732;BME280;6937;56.096;12.664;2022-08-19T12:42:55;101152.75;;;24.37;100.00
13732;BME280;6937;56.096;12.664;2022-08-19T12:45:20;101167.22;;;24.37;100.00
13732;BME280;6937;56.096;12.664;2022-08-19T12:47:47;101177.13;;;24.38;100.00
13732;BME280;6937;56.096;12.664;2022-08-19T12:50:13;101179.47;;;24.41;100.00
13732;BME280;6937;56.096;12.664;2022-08-19T12:52:38;101166.50;;;24.29;100.00